Latest Weather Observations for Tindal

IDD60801

Issued at 8:31 pm CST Saturday 6 February 2016 (issued every 30 minutes, with the page automatically refreshed every 10 minutes)

About weather observations | Map of weather stations | Latest weather observations for NT | Other Formats
Station Details ID: 014932 Name: TINDAL RAAF Lat: -14.52 Lon: 132.38 Height: 133.6 m
Data from the previous 72 hours. | See also: Recent months at Tindal
Date/Time
CST
Temp
°C
App
Temp
°C
Dew
Point
Rel
Hum
%
Delta-T
°C
Wind Press
QNH
hPa
Press
MSL
hPa
Rain
since 9 am
mm
Dir
 
Spd
km/h
Gust
km/h
Spd
kts
Gust
kts
06/08:30pm 29.2 35.3 24.5 76 3.3 CALM 0 0 0 0 1006.6 - 0.0
06/08:00pm 29.7 34.5 24.1 72 3.9 SW 6 7 3 4 1006.2 - 0.0
06/07:30pm 30.7 35.0 23.6 66 4.9 WSW 7 9 4 5 1006.0 - 0.0
06/07:00pm 31.7 35.8 23.2 60 5.9 SW 7 9 4 5 1005.8 - 0.0
06/06:30pm 32.3 36.6 23.3 59 6.2 SSW 6 7 3 4 1005.5 - 0.0
06/06:00pm 31.9 35.4 22.9 59 6.2 SSW 9 11 5 6 1005.3 1004.3 0.0
06/05:30pm 32.1 35.2 22.8 58 6.4 SW 11 13 6 7 1005.1 - 0.0
06/05:00pm 31.9 35.0 22.9 59 6.2 W 11 15 6 8 1005.0 - 0.0
06/04:30pm 32.2 34.4 22.6 57 6.6 W 15 19 8 10 1005.0 - 0.0
06/04:00pm 33.2 36.5 23.2 55 6.9 SW 11 13 6 7 1005.2 - 0.0
06/03:30pm 33.1 35.9 21.6 51 7.8 SSW 9 11 5 6 1005.4 - 0.0
06/03:00pm 33.5 36.4 21.0 48 8.5 NW 7 13 4 7 1005.5 1004.5 0.0
06/02:30pm 34.1 36.1 21.5 47 8.6 W 13 20 7 11 1005.8 - 0.0
06/02:00pm 33.1 36.5 23.4 56 6.8 WNW 11 17 6 9 1006.2 - 0.0
06/01:30pm 33.2 35.3 21.7 51 7.8 NW 13 20 7 11 1006.7 - 0.0
06/01:00pm 33.1 36.3 21.3 50 8.0 NW 6 11 3 6 1007.1 - 0.0
06/12:30pm 32.8 35.6 22.3 54 7.2 NW 11 17 6 9 1007.6 - 0.0
06/12:00pm 32.3 35.1 23.0 58 6.4 W 13 19 7 10 1008.0 1007.1 0.0
06/11:30am 32.0 35.6 24.3 63 5.4 WNW 13 17 7 9 1008.1 - 0.0
06/11:00am 31.5 35.0 23.6 63 5.5 W 11 20 6 11 1008.3 - 0.0
06/10:30am 30.8 33.5 22.9 62 5.4 WSW 13 19 7 10 1008.7 - 0.0
06/10:00am 30.2 33.3 23.6 67 4.6 W 13 20 7 11 1008.9 - 0.0
06/09:30am 29.1 32.5 23.3 71 4.0 WNW 11 15 6 8 1008.8 - 0.0
06/09:00am 28.0 31.6 23.8 78 2.9 W 11 15 6 8 1008.7 1007.7 0.0
06/08:30am 26.7 31.1 23.8 84 2.0 NW 7 11 4 6 1008.6 - 0.0
06/08:00am 25.7 30.0 23.6 88 1.4 NW 7 11 4 6 1008.3 - 0.0
06/07:30am 25.0 30.6 23.6 92 1.0 CALM 0 0 0 0 1008.1 - 0.0
06/07:00am 24.3 29.4 23.3 94 0.7 N 2 7 1 4 1007.7 - 0.0
06/06:54am 24.2 28.9 23.3 95 0.6 N 4 9 2 5 1007.7 - 0.0
06/06:48am 24.2 29.3 23.3 95 0.6 NNW 2 7 1 4 1007.7 - 0.0
06/06:35am 24.0 28.2 23.1 95 0.6 NNW 6 7 3 4 1007.6 - 0.0
06/06:30am 24.0 28.2 23.1 95 0.6 NW 6 7 3 4 1007.5 - 0.0
06/06:17am 24.0 28.0 23.1 95 0.6 W 7 9 4 5 1007.6 - 0.0
06/06:10am 24.0 28.0 23.1 95 0.6 WSW 7 9 4 5 1007.6 - 0.0
06/06:00am 24.1 29.4 23.1 94 0.7 CALM 0 7 0 4 1007.5 1006.6 0.0
06/05:30am 24.2 28.5 23.3 95 0.6 NW 6 7 3 4 1007.2 - 0.0
06/05:14am 24.1 28.1 23.1 94 0.7 NNW 7 9 4 5 1007.0 - 0.0
06/05:00am 24.2 28.4 23.2 94 0.7 NW 6 7 3 4 1007.0 - 0.0
06/04:30am 24.2 28.3 23.2 94 0.7 NW 7 9 4 5 1007.0 - 0.0
06/04:00am 24.2 28.3 23.0 93 0.8 W 6 9 3 5 1006.9 - 0.0
06/03:30am 24.3 28.2 22.9 92 0.9 W 7 7 4 4 1007.1 - 0.0
06/03:00am 24.3 27.8 22.9 92 1.0 WSW 9 11 5 6 1007.1 1006.2 0.0
06/02:30am 24.5 29.3 22.9 91 1.1 W 2 7 1 4 1007.4 - 0.0
06/02:00am 24.7 29.5 22.9 90 1.2 WNW 2 7 1 4 1007.6 - 0.0
06/01:30am 24.8 30.1 23.0 90 1.2 CALM 0 0 0 0 1008.0 - 0.0
06/01:00am 24.9 29.8 23.1 90 1.2 W 2 7 1 4 1008.1 - 0.0
06/12:30am 25.0 29.2 23.4 91 1.1 W 7 9 4 5 1008.6 - 0.0
06/12:00am 25.1 29.2 23.3 90 1.2 W 7 9 4 5 1008.6 1007.6 0.0
 
Date/Time
CST
Temp
°C
App
Temp
°C
Dew
Point
Rel
Hum
%
Delta-T
°C
Wind Press
QNH
hPa
Press
MSL
hPa
Rain
since 9 am
mm
Dir
 
Spd
km/h
Gust
km/h
Spd
kts
Gust
kts
05/11:30pm 25.3 29.0 23.2 88 1.4 WNW 9 11 5 6 1008.8 - 0.0
05/11:00pm 25.6 28.3 23.5 88 1.4 NW 15 20 8 11 1008.9 - 0.0
05/10:30pm 26.0 29.6 23.7 87 1.6 W 11 17 6 9 1008.7 - 0.0
05/10:00pm 26.7 27.9 23.8 84 2.0 WNW 24 35 13 19 1008.2 - 0.0
05/09:30pm 29.5 31.1 23.2 69 4.3 WSW 20 28 11 15 1007.7 - 0.0
05/09:00pm 30.0 36.0 24.9 74 3.6 S 2 7 1 4 1007.4 1006.5 0.0
05/08:30pm 30.3 36.1 24.0 69 4.4 CALM 0 0 0 0 1006.9 - 0.0
05/08:00pm 30.5 36.3 23.9 68 4.6 CALM 0 0 0 0 1006.7 - 0.0
05/07:30pm 31.6 37.1 23.4 61 5.7 CALM 0 0 0 0 1006.4 - 0.0
05/07:00pm 32.1 36.5 22.8 58 6.4 SE 4 7 2 4 1005.9 - 0.0
05/06:30pm 32.8 36.0 21.6 51 7.6 SSE 7 9 4 5 1005.5 - 0.0
05/06:00pm 33.8 36.4 21.9 49 8.2 S 11 15 6 8 1005.2 1004.2 0.0
05/05:30pm 33.7 35.9 21.2 48 8.5 SSE 11 15 6 8 1004.9 - 0.0
05/05:00pm 34.4 36.7 22.1 48 8.5 SE 13 19 7 10 1004.7 - 0.0
05/04:30pm 33.8 36.4 21.2 47 8.5 ESE 9 11 5 6 1004.8 - 0.0
05/04:00pm 34.0 38.0 21.4 47 8.6 E 2 9 1 5 1004.8 - 0.0
05/03:30pm 34.6 37.8 22.3 48 8.5 SE 9 15 5 8 1005.1 - 0.0
05/03:00pm 33.7 36.2 21.8 49 8.2 SSW 11 20 6 11 1005.5 1004.5 0.0
05/02:30pm 34.0 36.7 22.1 50 8.2 S 11 19 6 10 1005.7 - 0.0
05/02:00pm 33.5 36.3 21.6 49 8.1 ESE 9 17 5 9 1006.2 - 0.0
05/01:30pm 32.9 35.8 21.7 51 7.6 SSE 9 19 5 10 1006.6 - 0.0
05/01:00pm 32.1 33.7 20.7 51 7.6 S 13 19 7 10 1007.1 - 0.0
05/12:30pm 32.2 35.2 22.6 57 6.6 SW 11 19 6 10 1007.5 - 0.0
05/12:00pm 31.7 36.1 23.5 62 5.7 SE 6 15 3 8 1008.0 1007.1 0.0
05/11:30am 31.3 35.1 23.4 63 5.5 S 9 15 5 8 1008.5 - 0.0
05/11:00am 30.8 34.8 23.7 66 4.9 SW 9 17 5 9 1009.0 - 0.0
05/10:30am 29.8 33.9 24.0 71 4.0 SSW 9 15 5 8 1009.4 - 0.0
05/10:00am 28.6 32.7 23.9 75 3.3 SW 9 13 5 7 1009.6 - 0.0
05/09:59am 28.6 32.7 23.9 75 3.3 WSW 9 13 5 7 1009.6 - 0.0
05/09:30am 28.0 31.6 23.8 78 2.9 WSW 11 17 6 9 1009.8 - 0.0
05/09:00am 27.6 31.6 23.8 80 2.6 W 9 13 5 7 1009.8 1008.8 1.8
05/08:30am 26.7 30.3 23.8 84 2.0 W 11 15 6 8 1009.7 - 1.8
05/08:00am 26.1 30.1 23.8 87 1.6 W 9 13 5 7 1009.4 - 1.8
05/07:30am 25.6 29.9 23.6 89 1.4 W 7 11 4 6 1009.2 - 1.8
05/07:00am 25.3 29.6 23.7 91 1.1 W 7 9 4 5 1008.8 - 1.8
05/06:30am 25.3 29.3 23.7 91 1.1 WNW 9 11 5 6 1008.2 - 1.8
05/06:00am 25.2 29.1 23.6 91 1.1 WNW 9 11 5 6 1008.2 1007.3 1.8
05/05:30am 25.1 30.8 23.7 92 1.0 CALM 0 0 0 0 1008.1 - 1.8
05/05:00am 25.1 30.8 23.7 92 1.0 CALM 0 0 0 0 1008.2 - 1.8
05/04:30am 25.2 30.9 23.8 92 1.0 CALM 0 0 0 0 1008.2 - 1.8
05/04:29am 25.2 30.9 23.8 92 1.0 CALM 0 0 0 0 1008.2 - 1.8
05/04:00am 25.2 29.5 23.6 91 1.1 W 7 9 4 5 1008.1 - 1.8
05/03:30am 25.3 29.3 23.7 91 1.1 W 9 13 5 7 1008.1 - 1.8
05/03:00am 25.4 29.8 23.8 91 1.1 W 7 11 4 6 1008.2 1007.3 1.8
05/02:30am 25.6 29.6 23.8 90 1.2 WNW 9 11 5 6 1008.5 - 1.8
05/02:00am 25.8 29.8 23.8 89 1.4 W 9 13 5 7 1008.6 - 1.8
05/01:40am 26.0 30.3 24.2 90 1.2 W 9 13 5 7 1008.6 - 1.8
05/01:30am 26.1 30.3 24.1 89 1.4 W 9 13 5 7 1008.7 - 1.8
05/01:00am 26.4 30.2 24.1 87 1.6 NW 11 13 6 7 1008.9 - 1.8
05/12:36am 26.6 30.4 24.1 86 1.7 NNW 11 13 6 7 1009.1 - 1.8
05/12:30am 26.7 30.6 24.2 86 1.7 NNW 11 13 6 7 1009.2 - 1.8
05/12:00am 26.9 31.0 24.5 87 1.7 NW 11 13 6 7 1009.7 1008.7 1.8
 
Date/Time
CST
Temp
°C
App
Temp
°C
Dew
Point
Rel
Hum
%
Delta-T
°C
Wind Press
QNH
hPa
Press
MSL
hPa
Rain
since 9 am
mm
Dir
 
Spd
km/h
Gust
km/h
Spd
kts
Gust
kts
04/11:30pm 27.2 31.1 24.8 87 1.7 NW 13 20 7 11 1009.8 - 1.8
04/11:00pm 27.5 31.3 24.7 85 2.0 WNW 13 15 7 8 1009.7 - 1.8
04/10:30pm 28.0 31.6 25.0 84 2.1 NW 15 22 8 12 1009.4 - 1.8
04/10:00pm 28.2 33.5 25.2 84 2.1 NW 7 7 4 4 1009.1 - 1.8
04/09:30pm 28.2 34.9 25.4 85 2.0 CALM 0 6 0 3 1008.9 - 1.8
04/09:00pm 28.3 33.7 25.5 85 2.0 NW 7 9 4 5 1008.8 1007.8 1.8
04/08:30pm 28.4 33.0 25.4 84 2.1 WNW 11 13 6 7 1008.6 - 1.8
04/08:00pm 28.5 33.4 25.3 83 2.3 NW 9 11 5 6 1007.8 - 1.8
04/07:30pm 28.9 34.1 25.1 80 2.7 NW 7 9 4 5 1007.4 - 1.8
04/07:00pm 29.3 35.8 25.1 78 3.0 CALM 0 4 0 2 1006.9 - 1.8
04/06:30pm 29.4 33.9 24.0 72 3.8 S 7 9 4 5 1006.6 - 1.8
04/06:00pm 29.6 33.5 24.2 73 3.8 SE 11 15 6 8 1005.9 1004.9 1.8
04/05:30pm 29.8 33.6 24.0 71 4.0 SSE 11 13 6 7 1005.9 - 1.8
04/05:00pm 29.6 33.1 24.2 73 3.8 SSE 13 15 7 8 1005.7 - 1.8
04/04:30pm 29.7 33.4 24.6 74 3.6 S 13 17 7 9 1005.8 - 1.8
04/04:00pm 30.4 32.0 23.3 66 4.9 S 20 30 11 16 1005.8 - 1.8
04/03:30pm 31.9 33.7 23.2 60 6.0 S 19 26 10 14 1006.0 - 1.8
04/03:00pm 31.2 33.0 23.6 64 5.3 SSE 20 28 11 15 1006.5 1005.6 1.8
04/02:30pm 30.3 30.3 24.4 70 4.1 SE 32 43 17 23 1006.9 - 1.8
04/02:18pm 30.3 30.8 24.0 69 4.4 SE 28 44 15 24 1007.1 - 1.8
04/02:00pm 32.0 34.6 24.6 65 5.2 S 19 26 10 14 1007.2 - 1.8
04/01:30pm 30.7 35.9 25.1 72 4.0 E 7 11 4 6 1007.6 - 1.6
04/01:23pm 30.1 34.5 24.5 72 3.9 ENE 9 15 5 8 1007.8 - 1.6
04/01:04pm 29.1 33.5 24.4 76 3.3 E 9 15 5 8 1008.2 - 1.2
04/01:00pm 30.1 34.7 24.7 73 3.8 ESE 9 17 5 9 1008.2 - 0.2
04/12:30pm 31.8 35.5 23.9 63 5.5 S 11 15 6 8 1008.9 - 0.0
04/12:00pm 31.4 35.3 24.3 66 5.0 S 11 15 6 8 1009.3 1008.3 0.0
04/11:30am 30.8 33.2 23.7 66 4.9 SSE 17 22 9 12 1009.7 - 0.0
04/11:00am 30.7 33.6 23.9 67 4.7 S 15 24 8 13 1010.2 - 0.0
04/10:30am 30.6 34.4 24.0 68 4.6 SSW 11 20 6 11 1010.4 - 0.0
04/10:00am 29.7 33.6 23.6 69 4.2 S 9 19 5 10 1010.7 - 0.0
04/09:57am 29.3 33.3 23.7 72 3.9 S 9 19 5 10 1010.6 - 0.0
04/09:30am 28.3 32.6 24.3 79 2.8 S 9 13 5 7 1010.8 - 0.0
04/09:00am 27.4 31.4 23.8 81 2.5 SW 9 15 5 8 1010.8 1009.8 0.4
04/08:30am 26.5 32.1 24.3 88 1.5 W 2 7 1 4 1010.8 - 0.4
04/08:00am 25.6 30.2 24.2 92 1.0 WNW 7 9 4 5 1010.8 - 0.4
04/07:30am 25.4 30.2 24.2 93 0.8 NW 6 9 3 5 1010.5 - 0.4
04/07:26am 25.3 30.1 24.1 93 0.8 NW 6 7 3 4 1010.5 - 0.4
04/07:00am 25.2 29.8 24.2 94 0.7 NW 7 9 4 5 1010.1 - 0.4
04/06:41am 25.1 29.3 24.1 94 0.7 WNW 9 11 5 6 1009.7 - 0.4
04/06:30am 25.1 29.7 24.1 94 0.7 WNW 7 9 4 5 1009.6 - 0.4
04/06:00am 25.1 29.6 23.9 93 0.8 W 7 9 4 5 1009.3 1008.3 0.4
04/05:30am 25.1 29.6 23.9 93 0.8 WNW 7 9 4 5 1009.0 - 0.4
04/05:16am 25.1 29.2 23.9 93 0.8 WNW 9 11 5 6 1008.9 - 0.4
04/05:00am 25.2 29.3 24.0 93 0.8 NW 9 11 5 6 1008.7 - 0.4
04/04:30am 25.2 29.6 23.8 92 1.0 WNW 7 9 4 5 1008.5 - 0.4
04/04:16am 25.2 29.6 23.8 92 1.0 W 7 9 4 5 1008.3 - 0.4
04/04:00am 25.2 29.2 23.8 92 1.0 WNW 9 11 5 6 1008.2 - 0.4
04/03:30am 25.4 29.3 23.6 90 1.2 WNW 9 13 5 7 1008.3 - 0.4
04/03:05am 25.5 29.0 23.6 89 1.3 NW 11 15 6 8 1008.5 - 0.4
04/03:00am 25.5 29.0 23.6 89 1.3 NW 11 13 6 7 1008.5 1007.5 0.4
04/02:30am 25.6 29.4 23.5 88 1.4 WNW 9 11 5 6 1008.6 - 0.4
04/02:00am 25.7 29.2 23.6 88 1.4 WSW 11 17 6 9 1008.8 - 0.4
04/01:30am 26.0 29.2 23.7 87 1.6 WNW 13 19 7 10 1008.8 - 0.4
04/01:00am 26.3 29.8 24.2 88 1.5 W 13 20 7 11 1009.2 - 0.4
04/12:30am 26.7 30.8 24.5 88 1.5 WNW 11 17 6 9 1009.6 - 0.4
04/12:00am 26.9 31.6 24.9 89 1.4 W 9 13 5 7 1009.6 1008.6 0.4
 
Date/Time
CST
Temp
°C
App
Temp
°C
Dew
Point
Rel
Hum
%
Delta-T
°C
Wind Press
QNH
hPa
Press
MSL
hPa
Rain
since 9 am
mm
Dir
 
Spd
km/h
Gust
km/h
Spd
kts
Gust
kts
03/11:30pm 27.2 32.1 24.6 86 1.8 N 7 9 4 5 1009.7 - 0.4
03/11:00pm 27.4 32.0 24.8 86 1.8 NNW 9 11 5 6 1009.6 - 0.2
03/10:30pm 27.8 32.5 25.0 85 2.0 NW 9 13 5 7 1009.6 - 0.2
03/10:00pm 28.0 32.6 24.8 83 2.2 NW 9 13 5 7 1009.4 - 0.2
03/09:30pm 28.2 33.2 24.8 82 2.4 NNW 7 11 4 6 1009.0 - 0.2
03/09:00pm 28.5 32.8 24.9 81 2.5 NW 11 15 6 8 1009.0 1008.0 0.2

Other Formats:

Comma delimited format used in spreadsheet applications
http://www.bom.gov.au/fwo/IDD60801/IDD60801.94131.axf

JavaScript Object Notation format (JSON) in row-major order
http://www.bom.gov.au/fwo/IDD60801/IDD60801.94131.json